createdAt,value
2022-11-22T00:00:16.003Z,2.13
2022-11-22T00:01:17.639Z,2.20
2022-11-22T00:02:19.427Z,1.70
2022-11-22T00:03:21.169Z,2.10
2022-11-22T00:04:22.812Z,1.67
2022-11-22T00:05:24.472Z,1.70
2022-11-22T00:06:26.193Z,1.80
2022-11-22T00:07:27.992Z,2.35
2022-11-22T00:08:29.790Z,2.22
2022-11-22T00:09:31.602Z,1.90
2022-11-22T00:10:33.827Z,1.83
2022-11-22T00:11:35.466Z,1.83
2022-11-22T00:12:37.462Z,1.80
2022-11-22T00:13:39.121Z,3.58
2022-11-22T00:14:40.777Z,3.13
2022-11-22T00:15:42.441Z,2.40
2022-11-22T00:16:44.065Z,2.40
2022-11-22T00:17:45.762Z,2.08
2022-11-22T00:18:47.420Z,2.28
2022-11-22T00:19:49.104Z,2.40
2022-11-22T00:20:50.747Z,2.38
2022-11-22T00:21:52.398Z,2.60
2022-11-22T00:22:54.090Z,2.30
2022-11-22T00:23:57.590Z,2.65
2022-11-22T00:24:59.254Z,2.30
2022-11-22T00:26:00.913Z,2.78
2022-11-22T00:27:02.644Z,2.75
2022-11-22T00:28:04.488Z,2.83
2022-11-22T00:29:06.534Z,2.90
2022-11-22T00:30:09.174Z,3.10
2022-11-22T00:31:10.813Z,3.13
2022-11-22T00:32:12.468Z,3.22
2022-11-22T00:33:14.164Z,3.13
2022-11-22T00:34:15.931Z,3.38
2022-11-22T00:35:17.582Z,3.75
2022-11-22T00:36:19.223Z,3.03
2022-11-22T00:37:20.851Z,2.92
2022-11-22T00:38:22.524Z,3.38
2022-11-22T00:39:24.221Z,2.75
2022-11-22T00:40:25.863Z,3.63
2022-11-22T00:41:27.649Z,4.13
2022-11-22T00:42:29.398Z,5.22
2022-11-22T00:43:31.685Z,5.30
2022-11-22T00:44:33.530Z,4.68
2022-11-22T00:45:35.215Z,4.07
2022-11-22T00:46:36.896Z,3.53
2022-11-22T00:47:38.527Z,2.53
2022-11-22T00:48:40.241Z,2.30
2022-11-22T00:49:41.904Z,2.58
2022-11-22T00:50:43.585Z,2.45
2022-11-22T00:51:45.249Z,2.10
2022-11-22T00:52:46.903Z,2.00
2022-11-22T00:53:48.635Z,2.85
2022-11-22T00:54:54.600Z,15.23
2022-11-22T00:55:56.560Z,8.45
2022-11-22T00:56:58.280Z,2.35
2022-11-22T00:57:59.925Z,2.67
2022-11-22T00:59:01.947Z,3.28
2022-11-22T01:00:05.410Z,3.33
2022-11-22T01:01:07.085Z,3.88
2022-11-22T01:02:08.864Z,2.78
2022-11-22T01:03:12.438Z,3.00
2022-11-22T01:04:14.226Z,3.00
2022-11-22T01:05:18.017Z,3.10
2022-11-22T01:06:19.786Z,3.10
2022-11-22T01:07:21.486Z,2.30
2022-11-22T01:08:23.405Z,2.20
2022-11-22T01:09:25.153Z,2.17
2022-11-22T01:10:26.808Z,2.35
2022-11-22T01:11:28.491Z,2.53
2022-11-22T01:12:30.178Z,2.17
2022-11-22T01:13:32.006Z,3.10
2022-11-22T01:14:33.852Z,8.40
2022-11-22T01:15:35.810Z,3.22
2022-11-22T01:16:37.467Z,2.80
2022-11-22T01:17:39.171Z,2.50
2022-11-22T01:18:41.069Z,3.42
2022-11-22T01:19:42.771Z,3.30
2022-11-22T01:20:44.620Z,2.67
2022-11-22T01:21:46.278Z,2.50
2022-11-22T01:22:47.933Z,2.25
2022-11-22T01:23:49.582Z,2.15
2022-11-22T01:24:51.261Z,2.30
2022-11-22T01:25:53.077Z,2.33
2022-11-22T01:26:55.089Z,2.65
2022-11-22T01:27:56.784Z,2.45
2022-11-22T01:28:58.420Z,2.63
2022-11-22T01:30:00.111Z,2.30
2022-11-22T01:31:01.794Z,2.90
2022-11-22T01:32:03.871Z,3.38
2022-11-22T01:33:05.529Z,2.45
2022-11-22T01:34:07.231Z,2.90
2022-11-22T01:35:10.650Z,2.50
2022-11-22T01:36:12.512Z,2.28
2022-11-22T01:37:15.427Z,2.92
2022-11-22T01:38:17.150Z,2.45
2022-11-22T01:39:18.893Z,2.47
2022-11-22T01:40:21.001Z,2.53
2022-11-22T01:41:23.183Z,1.90
2022-11-22T01:42:39.456Z,2.15
2022-11-22T01:43:41.109Z,2.80
2022-11-22T01:44:44.050Z,2.58
2022-11-22T01:45:51.724Z,3.15
2022-11-22T01:47:14.586Z,2.00
2022-11-22T01:48:25.844Z,2.17
2022-11-22T01:49:56.245Z,2.72
2022-11-22T01:51:07.383Z,12.23
2022-11-22T01:52:15.800Z,4.07
2022-11-22T01:53:22.597Z,2.80
2022-11-22T01:54:29.105Z,2.97
2022-11-22T01:55:30.852Z,3.20
2022-11-22T01:56:33.081Z,3.75
2022-11-22T01:57:38.873Z,3.03
2022-11-22T01:58:43.580Z,2.80
2022-11-22T01:59:51.984Z,2.75
2022-11-22T02:00:54.458Z,2.70
2022-11-22T02:01:56.761Z,2.10
2022-11-22T02:03:01.316Z,2.45
2022-11-22T02:04:05.434Z,2.45
2022-11-22T02:05:11.682Z,2.42
2022-11-22T02:06:14.624Z,2.25
2022-11-22T02:07:24.517Z,2.05
2022-11-22T02:08:35.928Z,2.40
2022-11-22T02:10:44.636Z,3.53
2022-11-22T02:11:52.722Z,6.95
2022-11-22T02:12:57.567Z,2.58
2022-11-22T02:13:59.583Z,2.40
2022-11-22T02:15:01.430Z,2.60
2022-11-22T02:16:03.980Z,3.20
2022-11-22T02:17:05.705Z,3.83
2022-11-22T02:18:07.368Z,3.03
2022-11-22T02:19:40.479Z,2.53
2022-11-22T02:20:42.400Z,2.50
2022-11-22T02:21:48.544Z,2.42
2022-11-22T02:23:07.044Z,2.28
2022-11-22T02:24:19.521Z,2.92
2022-11-22T02:25:37.082Z,2.90
2022-11-22T02:26:38.834Z,2.78
2022-11-22T02:27:40.594Z,2.83
2022-11-22T02:28:43.052Z,2.40
2022-11-22T02:29:45.098Z,2.50
2022-11-22T02:30:46.771Z,7.95
2022-11-22T02:31:48.533Z,9.35
2022-11-22T02:32:50.250Z,4.13
2022-11-22T02:33:51.891Z,3.15
2022-11-22T02:34:53.562Z,2.97
2022-11-22T02:35:55.667Z,2.75
2022-11-22T02:36:57.352Z,3.92
2022-11-22T02:38:01.965Z,3.08
2022-11-22T02:39:03.967Z,2.90
2022-11-22T02:40:13.340Z,2.70
2022-11-22T02:41:15.244Z,2.47
2022-11-22T02:42:16.911Z,2.40
2022-11-22T02:43:47.092Z,2.70
2022-11-22T02:44:48.755Z,2.85
2022-11-22T02:45:50.412Z,2.90
2022-11-22T02:46:54.891Z,2.60
2022-11-22T02:48:11.539Z,2.70
2022-11-22T02:49:13.192Z,2.70
2022-11-22T02:50:14.977Z,2.95
2022-11-22T02:51:19.933Z,14.68
2022-11-22T02:52:21.918Z,5.10
2022-11-22T02:53:23.542Z,3.28
2022-11-22T02:54:25.252Z,2.63
2022-11-22T02:55:26.873Z,2.95
2022-11-22T02:56:28.511Z,2.90
2022-11-22T02:57:30.195Z,4.15
2022-11-22T02:58:31.898Z,4.28
2022-11-22T02:59:33.652Z,3.10
2022-11-22T03:00:37.479Z,3.08
2022-11-22T03:01:39.340Z,3.38
2022-11-22T03:02:41.054Z,3.00
2022-11-22T03:03:42.699Z,3.00
2022-11-22T03:04:44.372Z,2.90
2022-11-22T03:05:46.038Z,3.17
2022-11-22T03:06:47.683Z,3.45
2022-11-22T03:07:50.838Z,3.63
2022-11-22T03:08:56.385Z,3.03
2022-11-22T03:09:58.477Z,8.88
2022-11-22T03:11:00.570Z,10.00
2022-11-22T03:12:02.272Z,5.07
2022-11-22T03:13:04.019Z,2.88
2022-11-22T03:14:05.719Z,3.33
2022-11-22T03:15:07.543Z,3.20
2022-11-22T03:16:09.199Z,3.80
2022-11-22T03:17:10.928Z,4.20
2022-11-22T03:18:12.589Z,4.05
2022-11-22T03:19:14.337Z,3.60
2022-11-22T03:20:16.102Z,3.22
2022-11-22T03:21:17.820Z,2.47
2022-11-22T03:22:19.530Z,2.38
2022-11-22T03:23:21.187Z,2.65
2022-11-22T03:24:22.877Z,2.72
2022-11-22T03:25:24.530Z,2.63
2022-11-22T03:26:26.204Z,3.20
2022-11-22T03:27:27.857Z,2.92
2022-11-22T03:28:29.558Z,2.95
2022-11-22T03:29:31.410Z,2.80
2022-11-22T03:30:33.390Z,27.35
2022-11-22T03:31:35.957Z,16.70
2022-11-22T03:32:37.618Z,7.30
2022-11-22T03:33:39.258Z,4.30
2022-11-22T03:34:40.888Z,3.58
2022-11-22T03:35:42.602Z,2.78
2022-11-22T03:36:44.690Z,2.90
2022-11-22T03:37:46.338Z,3.25
2022-11-22T03:38:48.080Z,3.50
2022-11-22T03:39:49.828Z,3.10
2022-11-22T03:40:51.507Z,3.00
2022-11-22T03:41:55.519Z,2.53
2022-11-22T03:43:01.349Z,2.63
2022-11-22T03:44:03.098Z,2.60
2022-11-22T03:45:05.527Z,3.50
2022-11-22T03:46:07.187Z,2.63
2022-11-22T03:47:08.841Z,2.80
2022-11-22T03:48:10.494Z,2.83
2022-11-22T03:49:12.310Z,2.45
2022-11-22T03:50:13.978Z,3.35
2022-11-22T03:51:15.638Z,12.10
2022-11-22T03:52:17.291Z,4.18
2022-11-22T03:53:18.950Z,3.30
2022-11-22T03:54:20.647Z,2.90
2022-11-22T03:55:22.323Z,3.08
2022-11-22T03:56:24.018Z,2.80
2022-11-22T03:57:25.655Z,3.15
2022-11-22T03:58:27.427Z,3.40
2022-11-22T03:59:29.349Z,3.08
2022-11-22T04:00:32.530Z,3.13
2022-11-22T04:01:34.240Z,2.65
2022-11-22T04:02:35.923Z,3.10
2022-11-22T04:03:37.570Z,2.60
2022-11-22T04:04:39.202Z,2.60
2022-11-22T04:05:40.848Z,2.70
2022-11-22T04:06:42.539Z,2.60
2022-11-22T04:07:44.320Z,2.88
2022-11-22T04:08:46.141Z,3.05
2022-11-22T04:09:47.908Z,2.90
2022-11-22T04:10:50.376Z,7.55
2022-11-22T04:11:52.011Z,4.68
2022-11-22T04:12:58.453Z,3.20
2022-11-22T04:14:18.733Z,3.08
2022-11-22T04:15:20.393Z,3.53
2022-11-22T04:16:22.087Z,3.00
2022-11-22T04:17:41.809Z,3.53
2022-11-22T04:18:43.454Z,3.80
2022-11-22T04:20:05.052Z,3.40
2022-11-22T04:22:26.949Z,2.90
2022-11-22T04:23:33.810Z,2.50
2022-11-22T04:24:54.534Z,2.72
2022-11-22T04:25:56.311Z,2.88
2022-11-22T04:26:58.851Z,3.10
2022-11-22T04:28:01.168Z,3.38
2022-11-22T04:29:09.728Z,2.92
2022-11-22T04:30:16.020Z,2.70
2022-11-22T04:31:40.621Z,7.28
2022-11-22T04:32:47.933Z,3.25
2022-11-22T04:33:49.572Z,2.88
2022-11-22T04:34:51.218Z,2.72
2022-11-22T04:35:53.540Z,2.78
2022-11-22T04:36:55.202Z,3.03
2022-11-22T04:37:56.844Z,3.00
2022-11-22T04:38:58.534Z,2.85
2022-11-22T04:40:00.207Z,2.72
2022-11-22T04:41:01.931Z,3.08
2022-11-22T04:42:22.302Z,3.20
2022-11-22T04:43:46.914Z,2.60
2022-11-22T04:44:48.596Z,3.45
2022-11-22T04:45:50.479Z,3.03
2022-11-22T04:46:52.127Z,2.67
2022-11-22T04:47:59.648Z,2.75
2022-11-22T04:49:01.328Z,2.47
2022-11-22T04:50:24.887Z,2.50
2022-11-22T04:51:45.064Z,2.95
2022-11-22T04:52:55.373Z,2.95
2022-11-22T04:53:57.030Z,2.55
2022-11-22T04:54:58.737Z,2.58
2022-11-22T04:56:00.510Z,2.80
2022-11-22T04:57:02.247Z,2.53
2022-11-22T04:58:03.937Z,2.53
2022-11-22T04:59:05.615Z,2.42
2022-11-22T05:00:07.725Z,2.17
2022-11-22T05:01:10.076Z,2.60
2022-11-22T05:02:11.797Z,2.33
2022-11-22T05:03:13.779Z,2.58
2022-11-22T05:04:15.517Z,3.20
2022-11-22T05:05:17.175Z,3.85
2022-11-22T05:06:18.967Z,3.40
2022-11-22T05:07:20.661Z,3.90
2022-11-22T05:08:22.688Z,3.22
2022-11-22T05:09:24.630Z,3.47
2022-11-22T05:10:27.244Z,3.20
2022-11-22T05:11:29.193Z,2.75
2022-11-22T05:12:30.878Z,2.65
2022-11-22T05:13:34.032Z,2.80
2022-11-22T05:14:35.719Z,2.72
2022-11-22T05:15:37.347Z,2.40
2022-11-22T05:16:39.017Z,3.10
2022-11-22T05:17:40.644Z,3.15
2022-11-22T05:18:42.602Z,2.58
2022-11-22T05:19:49.056Z,2.72
2022-11-22T05:20:51.513Z,2.75
2022-11-22T05:21:53.210Z,3.22
2022-11-22T05:23:13.551Z,2.50
2022-11-22T05:24:15.193Z,2.38
2022-11-22T05:25:19.235Z,2.60
2022-11-22T05:26:27.253Z,2.60
2022-11-22T05:27:28.960Z,2.65
2022-11-22T05:28:32.093Z,2.63
2022-11-22T05:29:33.728Z,2.80
2022-11-22T05:30:39.224Z,2.95
2022-11-22T05:31:41.397Z,2.75
2022-11-22T05:32:43.033Z,3.40
2022-11-22T05:33:46.340Z,2.92
2022-11-22T05:34:47.992Z,4.50
2022-11-22T05:35:49.923Z,3.28
2022-11-22T05:36:51.557Z,3.03
2022-11-22T05:37:53.188Z,3.03
2022-11-22T05:38:54.949Z,2.83
2022-11-22T05:39:56.616Z,3.05
2022-11-22T05:40:58.344Z,3.10
2022-11-22T05:42:00.082Z,3.22
2022-11-22T05:43:01.737Z,2.97
2022-11-22T05:44:03.669Z,3.33
2022-11-22T05:45:06.433Z,3.50
2022-11-22T05:46:23.942Z,2.78
2022-11-22T05:47:26.640Z,2.40
2022-11-22T05:48:28.290Z,2.50
2022-11-22T05:49:30.132Z,2.88
2022-11-22T05:50:32.031Z,3.15
2022-11-22T05:51:35.209Z,2.30
2022-11-22T05:52:37.036Z,2.55
2022-11-22T05:53:39.408Z,2.65
2022-11-22T05:54:41.100Z,2.22
2022-11-22T05:55:42.761Z,2.20
2022-11-22T05:56:44.406Z,2.30
2022-11-22T05:57:46.127Z,2.40
2022-11-22T05:58:48.157Z,2.53
2022-11-22T05:59:49.815Z,2.70
2022-11-22T06:00:51.524Z,2.55
2022-11-22T06:01:53.229Z,2.88
2022-11-22T06:03:00.119Z,2.58
2022-11-22T06:04:02.928Z,2.25
2022-11-22T06:05:04.964Z,2.30
2022-11-22T06:06:08.042Z,2.75
2022-11-22T06:07:10.446Z,2.45
2022-11-22T06:08:13.311Z,2.55
2022-11-22T06:09:15.108Z,2.67
2022-11-22T06:10:16.996Z,2.35
2022-11-22T06:11:24.685Z,2.67
2022-11-22T06:12:26.333Z,3.00
2022-11-22T06:13:28.032Z,2.55
2022-11-22T06:14:29.734Z,2.63
2022-11-22T06:15:31.405Z,2.47
2022-11-22T06:16:33.075Z,2.50
2022-11-22T06:17:34.710Z,2.88
2022-11-22T06:18:38.573Z,3.72
2022-11-22T06:19:41.485Z,6.00
2022-11-22T06:20:51.128Z,6.95
2022-11-22T06:21:54.127Z,6.18
2022-11-22T06:23:00.614Z,5.75
2022-11-22T06:24:02.795Z,5.28
2022-11-22T06:25:04.824Z,4.60
2022-11-22T06:26:08.916Z,4.72
2022-11-22T06:27:10.668Z,3.80
2022-11-22T06:28:12.318Z,5.47
2022-11-22T06:29:14.032Z,5.00
2022-11-22T06:30:16.060Z,5.53
2022-11-22T06:31:23.039Z,5.82
2022-11-22T06:32:24.721Z,8.15
2022-11-22T06:33:26.374Z,6.15
2022-11-22T06:34:28.742Z,5.47
2022-11-22T06:35:30.594Z,3.92
2022-11-22T06:36:33.779Z,3.90
2022-11-22T06:37:35.475Z,3.28
2022-11-22T06:38:38.509Z,4.35
2022-11-22T06:39:40.187Z,4.80
2022-11-22T06:40:41.919Z,4.55
2022-11-22T06:41:43.568Z,4.82
2022-11-22T06:42:45.235Z,4.15
2022-11-22T06:43:49.397Z,3.45
2022-11-22T06:44:51.512Z,3.00
2022-11-22T06:45:56.915Z,2.40
2022-11-22T06:46:58.592Z,2.90
2022-11-22T06:48:00.261Z,2.50
2022-11-22T06:49:01.955Z,2.40
2022-11-22T06:50:03.789Z,2.15
2022-11-22T06:51:11.189Z,2.28
2022-11-22T06:52:12.872Z,2.30
2022-11-22T06:53:32.671Z,2.30
2022-11-22T06:54:37.112Z,1.90
2022-11-22T06:55:59.773Z,2.05
2022-11-22T06:57:00.453Z,2.17
2022-11-22T06:58:02.084Z,2.30
2022-11-22T06:59:05.263Z,2.22
2022-11-22T07:00:07.594Z,1.88
2022-11-22T07:01:12.001Z,1.92
2022-11-22T07:02:13.667Z,2.20
2022-11-22T07:03:15.317Z,2.15
2022-11-22T07:04:16.981Z,1.60
2022-11-22T07:05:25.517Z,2.20
2022-11-22T07:06:30.936Z,2.28
2022-11-22T07:07:32.649Z,1.83
2022-11-22T07:08:35.228Z,1.95
2022-11-22T07:09:38.462Z,2.00
2022-11-22T07:10:40.124Z,2.00
2022-11-22T07:11:41.991Z,1.88
2022-11-22T07:12:43.709Z,2.03
2022-11-22T07:13:46.488Z,2.10
2022-11-22T07:14:48.136Z,1.80
2022-11-22T07:15:57.264Z,1.83
2022-11-22T07:16:59.000Z,1.73
2022-11-22T07:18:00.637Z,2.08
2022-11-22T07:19:02.343Z,1.65
2022-11-22T07:20:04.449Z,1.75
2022-11-22T07:21:12.470Z,1.70
2022-11-22T07:22:14.700Z,1.50
2022-11-22T07:23:16.416Z,1.58
2022-11-22T07:24:18.123Z,1.80
2022-11-22T07:25:19.762Z,1.52
2022-11-22T07:26:24.189Z,1.60
2022-11-22T07:27:25.877Z,1.73
2022-11-22T07:28:27.562Z,1.70
2022-11-22T07:29:29.352Z,1.52
2022-11-22T07:30:31.198Z,1.48
2022-11-22T07:31:33.083Z,1.38
2022-11-22T07:32:34.813Z,1.42
2022-11-22T07:33:36.901Z,1.40
2022-11-22T07:34:38.547Z,1.70
2022-11-22T07:35:40.237Z,1.58
2022-11-22T07:36:41.876Z,1.40
2022-11-22T07:37:43.582Z,1.50
2022-11-22T07:38:46.478Z,1.20
2022-11-22T07:39:48.133Z,1.40
2022-11-22T07:40:49.961Z,1.40
2022-11-22T07:41:51.596Z,1.48
2022-11-22T07:42:58.280Z,1.40
2022-11-22T07:44:00.390Z,1.40
2022-11-22T07:45:02.027Z,1.38
2022-11-22T07:46:05.969Z,1.30
2022-11-22T07:47:07.647Z,1.20
2022-11-22T07:48:09.610Z,1.13
2022-11-22T07:49:12.290Z,1.25
2022-11-22T07:50:14.152Z,1.42
2022-11-22T07:51:16.647Z,1.10
2022-11-22T07:52:18.276Z,1.50
2022-11-22T07:53:20.229Z,1.20
2022-11-22T07:54:21.873Z,1.30
2022-11-22T07:55:25.428Z,1.27
2022-11-22T07:56:27.163Z,1.30
2022-11-22T07:57:28.815Z,1.10
2022-11-22T07:58:30.570Z,1.20
2022-11-22T07:59:32.528Z,1.15
2022-11-22T08:00:34.482Z,1.20
2022-11-22T08:01:36.247Z,1.35
2022-11-22T08:02:38.926Z,1.30
2022-11-22T08:03:41.184Z,1.30
2022-11-22T08:04:43.139Z,1.40
2022-11-22T08:05:44.805Z,1.10
2022-11-22T08:06:46.486Z,1.40
2022-11-22T08:07:52.713Z,1.00
2022-11-22T08:08:58.731Z,1.30
2022-11-22T08:10:04.138Z,1.20
2022-11-22T08:11:07.344Z,1.20
2022-11-22T08:12:09.459Z,1.20
2022-11-22T08:13:11.212Z,1.40
2022-11-22T08:14:12.923Z,1.20
2022-11-22T08:15:16.331Z,1.23
2022-11-22T08:16:18.333Z,1.40
2022-11-22T08:17:19.998Z,1.33
2022-11-22T08:18:22.312Z,1.30
2022-11-22T08:19:24.050Z,1.45
2022-11-22T08:20:25.891Z,1.20
2022-11-22T08:21:27.555Z,1.60
2022-11-22T08:22:29.234Z,1.52
2022-11-22T08:23:30.998Z,1.40
2022-11-22T08:24:34.106Z,1.10
2022-11-22T08:25:35.800Z,1.23
2022-11-22T08:26:37.579Z,1.40
2022-11-22T08:27:43.875Z,1.10
2022-11-22T08:28:45.835Z,1.15
2022-11-22T08:29:47.504Z,1.30
2022-11-22T08:30:49.219Z,1.48
2022-11-22T08:31:50.940Z,1.20
2022-11-22T08:32:55.751Z,1.35
2022-11-22T08:33:57.406Z,1.20
2022-11-22T08:34:59.086Z,1.15
2022-11-22T08:36:00.753Z,1.10
2022-11-22T08:37:02.379Z,1.30
2022-11-22T08:38:04.020Z,1.30
2022-11-22T08:39:05.721Z,1.35
2022-11-22T08:40:07.964Z,1.38
2022-11-22T08:41:10.971Z,1.23
2022-11-22T08:42:12.618Z,1.30
2022-11-22T08:43:14.260Z,1.30
2022-11-22T08:44:15.881Z,1.33
2022-11-22T08:45:17.595Z,1.20
2022-11-22T08:46:19.813Z,1.20
2022-11-22T08:47:21.862Z,1.40
2022-11-22T08:48:25.157Z,1.70
2022-11-22T08:49:26.826Z,1.60
2022-11-22T08:50:28.579Z,1.90
2022-11-22T08:51:30.236Z,2.10
2022-11-22T08:52:31.919Z,2.00
2022-11-22T08:53:36.245Z,1.70
2022-11-22T08:54:38.448Z,1.80
2022-11-22T08:55:40.131Z,1.83
2022-11-22T08:56:41.974Z,1.90
2022-11-22T08:57:43.648Z,1.70
2022-11-22T08:58:45.354Z,1.73
2022-11-22T08:59:47.103Z,1.80
2022-11-22T09:00:48.788Z,2.20
2022-11-22T09:01:50.488Z,2.08
2022-11-22T09:02:52.327Z,1.70
2022-11-22T09:03:54.115Z,1.73
2022-11-22T09:04:55.771Z,1.63
2022-11-22T09:09:02.924Z,1.50
2022-11-22T09:10:11.215Z,1.70
2022-11-22T09:11:17.832Z,1.60
2022-11-22T09:12:19.514Z,1.58
2022-11-22T09:13:21.184Z,1.70
2022-11-22T09:14:23.026Z,1.70
2022-11-22T09:15:24.842Z,1.75
2022-11-22T09:16:28.929Z,1.70
2022-11-22T09:17:30.618Z,1.73
2022-11-22T09:18:33.026Z,1.60
2022-11-22T09:19:34.684Z,1.67
2022-11-22T09:20:36.924Z,1.60
2022-11-22T09:21:38.712Z,1.60
2022-11-22T09:22:40.347Z,1.60
2022-11-22T09:23:46.127Z,1.70
2022-11-22T09:24:47.768Z,1.92
2022-11-22T09:25:57.603Z,1.60
2022-11-22T09:26:59.315Z,1.63
2022-11-22T09:28:03.246Z,1.80
2022-11-22T09:29:05.323Z,1.90
2022-11-22T09:30:07.810Z,1.90
2022-11-22T09:31:15.066Z,1.80
2022-11-22T09:32:16.725Z,1.92
2022-11-22T09:33:18.777Z,1.77
2022-11-22T09:34:20.502Z,1.85
2022-11-22T09:35:22.143Z,2.10
2022-11-22T09:36:28.661Z,1.80
2022-11-22T09:37:32.290Z,2.00
2022-11-22T09:38:34.745Z,1.70
2022-11-22T09:39:36.389Z,1.77
2022-11-22T09:40:38.026Z,1.90
2022-11-22T09:41:55.186Z,1.75
2022-11-22T09:43:31.332Z,1.80
2022-11-22T09:45:05.321Z,1.80
2022-11-22T09:46:13.325Z,2.05
2022-11-22T09:47:37.059Z,1.50
2022-11-22T09:49:14.714Z,1.33
2022-11-22T09:50:47.106Z,1.70
2022-11-22T09:51:58.071Z,1.48
2022-11-22T09:53:05.758Z,1.30
2022-11-22T09:54:18.604Z,1.20
2022-11-22T09:55:52.799Z,1.30
2022-11-22T09:56:59.595Z,1.40
2022-11-22T09:58:14.180Z,1.27
2022-11-22T09:59:23.418Z,1.33
2022-11-22T10:00:27.649Z,1.50
2022-11-22T10:01:41.204Z,1.33
2022-11-22T10:02:59.918Z,1.40
2022-11-22T10:04:02.374Z,1.48
2022-11-22T10:05:15.919Z,1.85
2022-11-22T10:06:45.961Z,1.70
2022-11-22T10:07:55.147Z,1.40
2022-11-22T10:09:17.766Z,1.67
2022-11-22T10:10:27.020Z,1.42
2022-11-22T10:11:43.595Z,1.60
2022-11-22T10:13:11.771Z,1.73
2022-11-22T10:14:37.797Z,2.20
2022-11-22T10:15:51.699Z,2.38
2022-11-22T10:16:57.379Z,2.50
2022-11-22T10:18:16.822Z,2.60
2022-11-22T10:19:30.100Z,2.70
2022-11-22T10:20:35.938Z,2.30
2022-11-22T10:21:37.668Z,2.83
2022-11-22T10:22:39.399Z,2.53
2022-11-22T10:23:43.041Z,2.38
2022-11-22T10:24:45.221Z,2.90
2022-11-22T10:26:11.940Z,2.55
2022-11-22T10:27:15.431Z,2.63
2022-11-22T10:28:32.020Z,2.78
2022-11-22T10:30:15.854Z,2.67
2022-11-22T10:31:21.494Z,2.20
2022-11-22T10:32:30.917Z,3.10
2022-11-22T10:33:39.971Z,3.03
2022-11-22T10:34:47.412Z,2.90
2022-11-22T10:36:04.140Z,2.80
2022-11-22T10:37:22.771Z,2.53
2022-11-22T10:38:39.669Z,2.75
2022-11-22T10:40:03.921Z,2.67
2022-11-22T10:41:40.038Z,2.50
2022-11-22T10:43:00.101Z,2.28
2022-11-22T10:44:23.385Z,2.53
2022-11-22T10:45:54.767Z,2.65
2022-11-22T10:47:34.524Z,2.25
2022-11-22T10:48:49.399Z,2.30
2022-11-22T10:50:32.141Z,2.17
2022-11-22T10:51:56.337Z,1.92
2022-11-22T10:53:06.943Z,2.22
2022-11-22T10:54:26.780Z,2.42
2022-11-22T10:55:54.343Z,2.20
2022-11-22T10:57:04.392Z,2.15
2022-11-22T10:58:18.310Z,1.90
2022-11-22T10:59:51.492Z,1.70
2022-11-22T11:01:20.676Z,2.00
2022-11-22T11:02:45.543Z,1.92
2022-11-22T11:03:52.698Z,2.90
2022-11-22T11:04:56.338Z,2.30
2022-11-22T11:06:33.422Z,2.75
2022-11-22T11:07:49.292Z,2.55
2022-11-22T11:09:54.859Z,3.22
2022-11-22T11:10:34.486Z,3.60
2022-11-22T11:11:40.099Z,3.40
2022-11-22T11:12:46.559Z,3.40
2022-11-22T11:13:53.396Z,3.50
2022-11-22T11:15:06.526Z,3.63
2022-11-22T11:16:12.304Z,2.92
2022-11-22T11:17:18.027Z,3.40
2022-11-22T11:18:27.424Z,3.20
2022-11-22T11:19:34.119Z,3.42
2022-11-22T11:20:39.162Z,3.50
2022-11-22T11:21:40.856Z,3.67
2022-11-22T11:23:13.071Z,4.22
2022-11-22T11:24:12.177Z,4.45
2022-11-22T11:25:30.503Z,4.32
2022-11-22T11:26:36.036Z,4.85
2022-11-22T11:27:42.705Z,4.78
2022-11-22T11:28:44.531Z,5.13
2022-11-22T11:29:49.248Z,4.95
2022-11-22T11:31:08.025Z,4.90
2022-11-22T11:32:21.006Z,5.05
2022-11-22T11:33:33.028Z,5.60
2022-11-22T11:34:35.724Z,5.32
2022-11-22T11:35:37.464Z,5.10
2022-11-22T11:36:39.575Z,4.72
2022-11-22T11:37:41.235Z,4.85
2022-11-22T11:38:42.881Z,4.63
2022-11-22T11:39:46.886Z,4.30
2022-11-22T11:40:48.548Z,4.20
2022-11-22T11:41:50.955Z,4.22
2022-11-22T11:43:22.759Z,3.63
2022-11-22T11:44:31.916Z,3.45
2022-11-22T11:45:34.000Z,3.70
2022-11-22T11:46:41.427Z,3.83
2022-11-22T11:47:43.091Z,3.55
2022-11-22T11:48:45.271Z,3.45
2022-11-22T11:49:53.202Z,3.13
2022-11-22T11:51:22.810Z,3.28
2022-11-22T11:52:25.918Z,2.38
2022-11-22T11:53:27.772Z,2.60
2022-11-22T11:54:38.493Z,2.70
2022-11-22T11:55:40.163Z,2.55
2022-11-22T11:56:50.857Z,2.58
2022-11-22T11:57:53.571Z,3.00
2022-11-22T11:58:58.259Z,2.30
2022-11-22T12:00:03.238Z,2.75
2022-11-22T12:01:11.465Z,2.60
2022-11-22T12:02:42.732Z,2.85
2022-11-22T12:03:51.935Z,2.53
2022-11-22T12:04:59.750Z,2.97
2022-11-22T12:06:14.662Z,2.40
2022-11-22T12:07:20.761Z,2.70
2022-11-22T12:08:31.230Z,2.70
2022-11-22T12:09:36.526Z,2.70
2022-11-22T12:11:14.370Z,2.50
2022-11-22T12:12:16.027Z,2.60
2022-11-22T12:14:12.815Z,2.55
2022-11-22T12:15:37.407Z,2.70
2022-11-22T12:16:49.732Z,2.70
2022-11-22T12:17:58.940Z,2.67
2022-11-22T12:19:58.940Z,2.55
2022-11-22T12:21:17.851Z,2.95
2022-11-22T12:22:52.939Z,2.83
2022-11-22T12:25:45.661Z,2.90
2022-11-22T12:26:47.511Z,3.25
2022-11-22T12:27:49.201Z,3.10
2022-11-22T12:28:50.922Z,3.25
2022-11-22T12:29:53.652Z,3.03
2022-11-22T12:31:26.540Z,2.83
2022-11-22T12:32:38.115Z,2.97
2022-11-22T12:33:47.597Z,2.78
2022-11-22T12:34:51.949Z,3.35
2022-11-22T12:35:55.490Z,2.85
2022-11-22T12:37:19.626Z,3.03
2022-11-22T12:38:26.081Z,2.88
2022-11-22T12:39:29.253Z,2.80
2022-11-22T12:40:38.397Z,2.80
2022-11-22T12:41:41.729Z,2.85
2022-11-22T12:42:51.501Z,2.72
2022-11-22T12:44:16.866Z,2.90
2022-11-22T12:45:24.642Z,2.83
2022-11-22T12:46:39.707Z,3.38
2022-11-22T12:47:46.659Z,3.00
2022-11-22T12:48:52.001Z,3.22
2022-11-22T12:49:59.898Z,3.15
2022-11-22T12:51:07.729Z,3.25
2022-11-22T12:52:23.138Z,3.35
2022-11-22T12:53:32.420Z,3.60
2022-11-22T12:54:42.477Z,3.83
2022-11-22T12:56:13.087Z,3.10
2022-11-22T12:57:23.686Z,3.17
2022-11-22T12:58:36.191Z,2.90
2022-11-22T13:00:17.337Z,2.92
2022-11-22T13:01:37.152Z,3.10
2022-11-22T13:03:14.068Z,2.58
2022-11-22T13:04:26.619Z,2.90
2022-11-22T13:05:36.928Z,2.92
2022-11-22T13:07:04.547Z,3.00
2022-11-22T13:08:29.189Z,2.63
2022-11-22T13:09:38.578Z,3.30
2022-11-22T13:10:47.864Z,3.00
2022-11-22T13:12:00.557Z,3.10
2022-11-22T13:13:04.845Z,3.22
2022-11-22T13:14:38.576Z,3.10
2022-11-22T13:15:41.216Z,3.00
2022-11-22T13:16:43.357Z,3.17
2022-11-22T13:17:45.899Z,2.80
2022-11-22T13:19:08.564Z,3.00
2022-11-22T13:20:16.948Z,3.53
2022-11-22T13:21:37.649Z,3.05
2022-11-22T13:23:19.003Z,3.63
2022-11-22T13:24:51.621Z,3.92
2022-11-22T13:26:15.061Z,4.30
2022-11-22T13:27:19.614Z,3.38
2022-11-22T13:28:25.886Z,3.45
2022-11-22T13:29:29.881Z,3.22
2022-11-22T13:30:34.108Z,3.70
2022-11-22T13:31:40.751Z,3.65
2022-11-22T13:32:43.065Z,4.05
2022-11-22T13:34:01.851Z,3.65
2022-11-22T13:35:22.534Z,4.30
2022-11-22T13:36:24.300Z,3.90
2022-11-22T13:37:27.266Z,4.40
2022-11-22T13:38:29.299Z,3.92
2022-11-22T13:39:31.056Z,3.80
2022-11-22T13:40:35.260Z,4.07
2022-11-22T13:41:51.965Z,4.28
2022-11-22T13:43:15.588Z,3.75
2022-11-22T13:44:22.586Z,4.07
2022-11-22T13:45:25.683Z,3.90
2022-11-22T13:46:57.008Z,3.90
2022-11-22T13:47:58.687Z,3.80
2022-11-22T13:49:16.369Z,5.20
2022-11-22T13:50:36.531Z,4.32
2022-11-22T13:51:53.600Z,4.20
2022-11-22T13:52:55.315Z,4.43
2022-11-22T13:54:57.021Z,4.13
2022-11-22T13:56:28.984Z,4.35
2022-11-22T13:57:37.949Z,4.60
2022-11-22T13:58:39.539Z,4.20
2022-11-22T13:59:41.236Z,4.50
2022-11-22T14:00:43.230Z,4.43
2022-11-22T14:01:44.930Z,4.68
2022-11-22T14:02:52.833Z,4.32
2022-11-22T14:03:54.526Z,4.50
2022-11-22T14:04:56.655Z,4.68
2022-11-22T14:05:58.803Z,4.53
2022-11-22T14:07:23.839Z,4.68
2022-11-22T14:08:40.435Z,4.47
2022-11-22T14:09:42.351Z,4.43
2022-11-22T14:10:53.226Z,4.53
2022-11-22T14:12:13.629Z,4.43
2022-11-22T14:13:21.503Z,4.28
2022-11-22T14:14:34.235Z,4.50
2022-11-22T14:15:48.038Z,4.25
2022-11-22T14:17:16.547Z,4.20
2022-11-22T14:18:40.977Z,4.35
2022-11-22T14:20:10.315Z,4.00
2022-11-22T14:21:14.637Z,4.47
2022-11-22T14:22:54.954Z,4.70
2022-11-22T14:24:11.581Z,5.13
2022-11-22T14:25:31.705Z,4.63
2022-11-22T14:26:48.401Z,3.73
2022-11-22T14:28:22.908Z,5.35
2022-11-22T14:29:53.905Z,5.05
2022-11-22T14:30:57.582Z,5.47
2022-11-22T14:32:13.732Z,7.30
2022-11-22T14:33:21.103Z,5.95
2022-11-22T14:34:28.024Z,6.90
2022-11-22T14:35:36.238Z,5.93
2022-11-22T14:36:37.897Z,7.07
2022-11-22T14:37:58.842Z,8.00
2022-11-22T14:39:00.629Z,9.68
2022-11-22T14:40:06.574Z,10.90
2022-11-22T14:41:26.505Z,11.07
2022-11-22T14:42:41.915Z,12.02
2022-11-22T14:43:44.705Z,13.68
2022-11-22T14:44:48.059Z,13.07
2022-11-22T14:45:56.688Z,11.82
2022-11-22T14:47:04.693Z,13.02
2022-11-22T14:48:31.111Z,12.93
2022-11-22T14:49:33.042Z,12.88
2022-11-22T14:50:37.948Z,14.45
2022-11-22T14:51:40.134Z,14.13
2022-11-22T14:52:44.222Z,14.60